createdAt,value
2022-07-29T00:00:33.800Z,1.00
2022-07-29T00:03:04.980Z,1.00
2022-07-29T00:05:32.657Z,0.90
2022-07-29T00:08:00.378Z,1.40
2022-07-29T00:10:28.145Z,1.20
2022-07-29T00:12:55.632Z,1.20
2022-07-29T00:15:23.158Z,1.30
2022-07-29T00:17:50.724Z,1.20
2022-07-29T00:20:18.432Z,1.00
2022-07-29T00:22:46.020Z,1.10
2022-07-29T00:25:14.041Z,0.90
2022-07-29T00:27:41.821Z,1.10
2022-07-29T00:30:09.841Z,1.00
2022-07-29T00:32:40.728Z,0.90
2022-07-29T00:35:27.600Z,0.90
2022-07-29T00:37:55.240Z,0.70
2022-07-29T00:40:23.434Z,1.20
2022-07-29T00:42:53.304Z,1.10
2022-07-29T00:45:22.509Z,1.00
2022-07-29T00:47:50.018Z,0.90
2022-07-29T00:50:17.762Z,1.10
2022-07-29T00:52:45.669Z,1.00
2022-07-29T00:55:15.469Z,0.70
2022-07-29T00:57:44.838Z,0.70
2022-07-29T01:00:19.234Z,0.70
2022-07-29T01:02:51.055Z,0.70
2022-07-29T01:05:24.491Z,0.90
2022-07-29T01:07:54.469Z,0.90
2022-07-29T01:10:23.742Z,0.70
2022-07-29T01:12:53.849Z,0.80
2022-07-29T01:15:21.817Z,0.70
2022-07-29T01:18:04.919Z,0.70
2022-07-29T01:20:56.579Z,0.80
2022-07-29T01:23:40.648Z,0.70
2022-07-29T01:26:29.830Z,0.70
2022-07-29T01:29:12.390Z,0.80
2022-07-29T01:31:53.822Z,0.70
2022-07-29T01:34:51.308Z,0.70
2022-07-29T01:37:37.662Z,0.70
2022-07-29T01:40:09.270Z,0.90
2022-07-29T01:42:44.353Z,0.80
2022-07-29T01:45:33.031Z,0.80
2022-07-29T01:48:00.474Z,0.60
2022-07-29T01:50:45.911Z,0.80
2022-07-29T01:53:15.855Z,0.70
2022-07-29T01:55:46.150Z,0.70
2022-07-29T01:58:15.890Z,0.70
2022-07-29T02:00:46.101Z,0.90
2022-07-29T02:03:16.688Z,0.70
2022-07-29T02:05:48.811Z,0.80
2022-07-29T02:08:19.275Z,0.90
2022-07-29T02:10:49.838Z,0.80
2022-07-29T02:13:19.822Z,0.90
2022-07-29T02:15:49.651Z,0.80
2022-07-29T02:18:20.302Z,0.70
2022-07-29T02:20:50.524Z,0.80
2022-07-29T02:23:24.493Z,0.80
2022-07-29T02:25:55.860Z,0.80
2022-07-29T02:28:27.750Z,0.80
2022-07-29T02:30:59.694Z,0.80
2022-07-29T02:33:28.690Z,0.80
2022-07-29T02:35:57.965Z,0.60
2022-07-29T02:38:46.641Z,0.70
2022-07-29T02:41:18.445Z,1.00
2022-07-29T02:43:49.533Z,0.80
2022-07-29T02:46:28.294Z,0.90
2022-07-29T02:51:46.928Z,0.90
2022-07-29T02:54:33.106Z,0.70
2022-07-29T02:57:07.653Z,0.80
2022-07-29T02:59:39.243Z,0.90
2022-07-29T03:02:09.248Z,0.90
2022-07-29T03:04:39.185Z,0.70
2022-07-29T03:07:07.806Z,0.90
2022-07-29T03:09:37.007Z,1.00
2022-07-29T03:12:06.333Z,0.80
2022-07-29T03:14:34.453Z,0.90
2022-07-29T03:17:03.572Z,0.70
2022-07-29T03:19:33.010Z,0.70
2022-07-29T03:22:00.872Z,0.80
2022-07-29T03:24:31.169Z,0.80
2022-07-29T03:26:59.498Z,0.90
2022-07-29T03:29:33.902Z,0.90
2022-07-29T03:32:07.977Z,0.90
2022-07-29T03:37:06.823Z,0.70
2022-07-29T03:39:40.157Z,0.90
2022-07-29T03:42:09.657Z,0.90
2022-07-29T03:44:39.557Z,0.80
2022-07-29T03:47:09.393Z,0.80
2022-07-29T03:49:38.706Z,0.80
2022-07-29T03:52:06.952Z,0.70
2022-07-29T03:54:35.364Z,0.60
2022-07-29T03:57:04.452Z,0.80
2022-07-29T03:59:34.877Z,0.90
2022-07-29T04:02:06.308Z,0.90
2022-07-29T04:04:35.395Z,0.80
2022-07-29T04:07:02.854Z,0.80
2022-07-29T04:09:30.980Z,0.90
2022-07-29T04:12:02.947Z,0.80
2022-07-29T04:14:35.782Z,0.90
2022-07-29T04:17:04.867Z,0.90
2022-07-29T04:19:32.977Z,0.80
2022-07-29T04:22:01.328Z,0.90
2022-07-29T04:24:28.774Z,0.80
2022-07-29T04:26:56.282Z,1.00
2022-07-29T04:29:23.826Z,0.90
2022-07-29T04:31:51.394Z,0.70
2022-07-29T04:34:19.441Z,0.90
2022-07-29T04:36:47.682Z,1.10
2022-07-29T04:39:20.732Z,0.80
2022-07-29T04:41:51.237Z,0.90
2022-07-29T04:44:20.235Z,0.80
2022-07-29T04:46:48.302Z,0.80
2022-07-29T04:49:15.960Z,0.80
2022-07-29T04:51:43.562Z,0.70
2022-07-29T04:54:11.068Z,0.90
2022-07-29T04:56:38.514Z,0.90
2022-07-29T04:59:05.930Z,0.60
2022-07-29T05:01:33.423Z,0.90
2022-07-29T05:04:00.958Z,0.80
2022-07-29T05:06:28.420Z,0.80
2022-07-29T05:08:55.874Z,0.60
2022-07-29T05:11:26.133Z,0.70
2022-07-29T05:13:57.503Z,1.30
2022-07-29T05:16:25.146Z,0.90
2022-07-29T05:18:52.797Z,0.50
2022-07-29T05:21:20.246Z,0.80
2022-07-29T05:23:47.759Z,0.70
2022-07-29T05:26:15.158Z,0.80
2022-07-29T05:28:42.598Z,0.80
2022-07-29T05:31:10.212Z,0.80
2022-07-29T05:33:38.244Z,1.00
2022-07-29T05:36:08.768Z,0.80
2022-07-29T05:38:37.256Z,0.60
2022-07-29T05:41:05.895Z,0.90
2022-07-29T05:46:01.386Z,0.90
2022-07-29T05:48:29.070Z,0.80
2022-07-29T05:50:56.753Z,0.70
2022-07-29T05:53:24.198Z,0.80
2022-07-29T05:55:52.929Z,0.70
2022-07-29T05:58:20.558Z,1.00
2022-07-29T06:00:48.128Z,0.90
2022-07-29T06:03:15.792Z,0.80
2022-07-29T06:05:43.213Z,0.80
2022-07-29T06:08:10.729Z,0.60
2022-07-29T06:10:38.611Z,0.80
2022-07-29T06:13:06.221Z,0.80
2022-07-29T06:15:34.198Z,0.90
2022-07-29T06:18:02.461Z,0.80
2022-07-29T06:20:31.277Z,0.90
2022-07-29T06:22:59.535Z,0.70
2022-07-29T06:25:29.896Z,0.70
2022-07-29T06:27:58.291Z,1.00
2022-07-29T06:32:53.344Z,0.70
2022-07-29T06:35:41.279Z,0.60
2022-07-29T06:38:25.153Z,0.80
2022-07-29T06:41:02.895Z,0.70
2022-07-29T06:43:45.601Z,0.70
2022-07-29T06:46:20.488Z,0.80
2022-07-29T06:48:48.747Z,0.80
2022-07-29T06:54:00.667Z,0.70
2022-07-29T06:56:38.542Z,0.80
2022-07-29T06:59:09.423Z,0.80
2022-07-29T07:01:43.574Z,0.80
2022-07-29T07:04:12.458Z,0.80
2022-07-29T07:06:40.343Z,0.80
2022-07-29T07:09:08.168Z,0.70
2022-07-29T07:11:36.467Z,0.70
2022-07-29T07:14:04.480Z,0.80
2022-07-29T07:19:00.978Z,0.80
2022-07-29T07:21:30.168Z,0.80
2022-07-29T07:23:59.677Z,0.80
2022-07-29T07:26:28.234Z,0.70
2022-07-29T07:28:55.943Z,1.20
2022-07-29T07:31:23.665Z,0.70
2022-07-29T07:33:52.481Z,0.70
2022-07-29T07:36:20.701Z,0.70
2022-07-29T07:41:15.599Z,0.70
2022-07-29T07:43:43.110Z,0.80
2022-07-29T07:46:10.711Z,0.60
2022-07-29T07:48:38.260Z,0.60
2022-07-29T07:51:05.832Z,0.70
2022-07-29T07:53:33.298Z,0.50
2022-07-29T07:56:10.494Z,0.70
2022-07-29T07:58:39.429Z,0.70
2022-07-29T08:01:07.177Z,0.60
2022-07-29T08:03:35.092Z,0.60
2022-07-29T08:06:04.678Z,0.70
2022-07-29T08:08:32.180Z,0.70
2022-07-29T08:11:08.290Z,0.70
2022-07-29T08:13:38.512Z,0.70
2022-07-29T08:16:13.987Z,0.70
2022-07-29T08:18:43.632Z,0.60
2022-07-29T08:21:16.207Z,0.70
2022-07-29T08:24:01.823Z,0.80
2022-07-29T08:26:32.944Z,0.80
2022-07-29T08:29:00.408Z,0.60
2022-07-29T08:31:28.011Z,1.20
2022-07-29T08:33:57.225Z,0.70
2022-07-29T08:36:25.778Z,0.70
2022-07-29T08:41:22.012Z,0.80
2022-07-29T08:43:51.034Z,0.60
2022-07-29T08:46:19.946Z,0.70
2022-07-29T08:48:48.821Z,0.80
2022-07-29T08:51:21.582Z,0.70
2022-07-29T08:53:51.296Z,0.70
2022-07-29T08:56:20.622Z,1.00
2022-07-29T08:58:51.712Z,1.00
2022-07-29T09:01:36.289Z,0.80
2022-07-29T09:04:12.986Z,0.70
2022-07-29T09:06:47.132Z,0.80
2022-07-29T09:09:15.235Z,0.80
2022-07-29T09:11:43.756Z,0.70
2022-07-29T09:14:14.065Z,0.90
2022-07-29T09:16:57.654Z,0.80
2022-07-29T09:19:26.833Z,0.70
2022-07-29T09:22:03.021Z,0.90
2022-07-29T09:24:48.455Z,0.90
2022-07-29T09:27:23.181Z,0.90
2022-07-29T09:30:01.784Z,1.10
2022-07-29T09:32:30.374Z,0.80
2022-07-29T09:35:20.998Z,0.90
2022-07-29T09:37:49.481Z,0.80
2022-07-29T09:40:26.763Z,0.80
2022-07-29T09:42:57.949Z,0.80
2022-07-29T09:45:34.456Z,0.90
2022-07-29T09:48:23.359Z,0.80
2022-07-29T09:50:53.225Z,1.00
2022-07-29T09:53:38.281Z,0.90
2022-07-29T09:56:06.610Z,0.90
2022-07-29T09:58:34.812Z,0.90
2022-07-29T10:01:02.994Z,0.90
2022-07-29T10:03:30.621Z,0.90
2022-07-29T10:06:14.384Z,1.00
2022-07-29T10:08:42.873Z,1.00
2022-07-29T10:11:13.262Z,0.90
2022-07-29T10:13:42.692Z,1.00
2022-07-29T10:16:11.323Z,1.10
2022-07-29T10:18:44.496Z,1.00
2022-07-29T10:21:22.601Z,1.00
2022-07-29T10:24:01.433Z,0.80
2022-07-29T10:26:31.259Z,0.90
2022-07-29T10:28:59.266Z,0.90
2022-07-29T10:31:49.792Z,1.00
2022-07-29T10:34:46.939Z,0.90
2022-07-29T10:37:36.021Z,1.00
2022-07-29T10:40:35.854Z,1.20
2022-07-29T10:43:20.845Z,1.20
2022-07-29T10:45:50.600Z,0.90
2022-07-29T10:48:20.094Z,1.10
2022-07-29T10:51:04.846Z,1.10
2022-07-29T10:53:52.278Z,1.00
2022-07-29T10:56:29.584Z,1.00
2022-07-29T10:59:36.561Z,0.90
2022-07-29T11:02:41.430Z,1.20
2022-07-29T11:05:12.976Z,1.00
2022-07-29T11:08:02.428Z,1.00
2022-07-29T11:10:31.405Z,1.10
2022-07-29T11:12:59.646Z,1.20
2022-07-29T11:15:28.686Z,1.10
2022-07-29T11:17:59.401Z,1.10
2022-07-29T11:20:42.993Z,1.20
2022-07-29T11:23:34.045Z,1.10
2022-07-29T11:26:28.325Z,1.40
2022-07-29T11:29:02.240Z,1.40
2022-07-29T11:34:37.845Z,1.20
2022-07-29T11:37:17.723Z,1.40
2022-07-29T11:39:47.519Z,1.20
2022-07-29T11:45:42.916Z,1.50
2022-07-29T11:48:28.774Z,1.30
2022-07-29T11:50:55.235Z,1.10
2022-07-29T11:53:26.063Z,1.20
2022-07-29T11:55:58.585Z,1.40
2022-07-29T11:58:28.317Z,1.30
2022-07-29T12:00:56.468Z,1.60
2022-07-29T12:03:32.941Z,1.40
2022-07-29T12:06:13.284Z,1.20
2022-07-29T12:08:43.373Z,1.50
2022-07-29T12:11:20.418Z,1.40
2022-07-29T12:13:49.751Z,1.50
2022-07-29T12:16:25.756Z,1.50
2022-07-29T12:19:03.511Z,1.50
2022-07-29T12:21:53.669Z,1.40
2022-07-29T12:24:26.919Z,1.60
2022-07-29T12:27:00.586Z,1.40
2022-07-29T12:29:33.952Z,1.40
2022-07-29T12:32:14.295Z,1.40
2022-07-29T12:34:43.095Z,1.60
2022-07-29T12:37:12.266Z,1.60
2022-07-29T12:39:40.794Z,1.40
2022-07-29T12:42:14.000Z,1.60
2022-07-29T12:44:51.073Z,1.30
2022-07-29T12:47:20.896Z,1.60
2022-07-29T12:49:50.229Z,1.60
2022-07-29T12:52:25.818Z,1.40
2022-07-29T12:54:53.405Z,1.50
2022-07-29T12:57:21.794Z,1.60
2022-07-29T13:00:11.278Z,1.50
2022-07-29T13:02:40.163Z,1.40
2022-07-29T13:05:09.438Z,1.50
2022-07-29T13:07:53.966Z,1.30
2022-07-29T13:10:24.659Z,1.30
2022-07-29T13:13:08.813Z,1.50
2022-07-29T13:15:38.710Z,1.40
2022-07-29T13:18:27.455Z,1.40
2022-07-29T13:20:55.934Z,1.60
2022-07-29T13:23:24.635Z,1.40
2022-07-29T13:25:52.254Z,1.40
2022-07-29T13:28:22.413Z,1.40
2022-07-29T13:30:51.415Z,1.10
2022-07-29T13:33:19.454Z,1.30
2022-07-29T13:35:48.389Z,1.40
2022-07-29T13:38:16.195Z,1.20
2022-07-29T13:40:45.305Z,1.30
2022-07-29T13:43:13.271Z,1.30
2022-07-29T13:45:41.253Z,1.30
2022-07-29T13:48:09.154Z,1.30
2022-07-29T13:50:37.631Z,1.20
2022-07-29T13:55:33.912Z,1.10
2022-07-29T13:58:02.555Z,1.10
2022-07-29T14:00:33.049Z,1.10
2022-07-29T14:03:01.639Z,1.40
2022-07-29T14:05:29.502Z,1.20
2022-07-29T14:07:59.682Z,1.20
2022-07-29T14:10:32.054Z,1.60
2022-07-29T14:13:02.229Z,1.30
2022-07-29T14:15:29.784Z,1.40
2022-07-29T14:17:58.172Z,1.40
2022-07-29T14:20:26.096Z,1.50
2022-07-29T14:22:54.321Z,1.20
2022-07-29T14:25:27.414Z,1.30
2022-07-29T14:27:58.511Z,1.30
2022-07-29T14:30:27.829Z,1.30
2022-07-29T14:32:56.716Z,1.40
2022-07-29T14:35:24.422Z,1.30
2022-07-29T14:37:52.249Z,1.20
2022-07-29T14:40:21.062Z,1.40
2022-07-29T14:42:51.152Z,1.30
2022-07-29T14:45:21.245Z,1.30
2022-07-29T14:47:57.191Z,1.20
2022-07-29T14:50:31.354Z,1.20
2022-07-29T14:53:04.058Z,1.40
2022-07-29T14:55:34.392Z,1.30
2022-07-29T14:58:10.888Z,1.40
2022-07-29T15:00:43.193Z,1.50
2022-07-29T15:03:24.264Z,1.40
2022-07-29T15:05:58.657Z,1.20
2022-07-29T15:08:31.090Z,1.50
2022-07-29T15:11:03.227Z,1.40
2022-07-29T15:13:32.241Z,1.40
2022-07-29T15:16:00.745Z,1.70
2022-07-29T15:18:28.956Z,1.40
2022-07-29T15:23:24.429Z,1.30
2022-07-29T15:25:52.773Z,1.60
2022-07-29T15:28:20.590Z,1.50
2022-07-29T15:33:17.045Z,1.50
2022-07-29T15:35:47.722Z,1.40
2022-07-29T15:38:18.419Z,1.80
2022-07-29T15:40:47.380Z,1.50
2022-07-29T15:43:14.974Z,1.50
2022-07-29T15:46:02.557Z,1.60
2022-07-29T15:48:30.516Z,1.40
2022-07-29T15:50:59.454Z,1.30
2022-07-29T15:53:27.032Z,1.30
2022-07-29T15:55:54.851Z,1.50
2022-07-29T15:58:22.783Z,1.30
2022-07-29T16:00:50.652Z,1.50
2022-07-29T16:03:19.559Z,1.50
2022-07-29T16:05:47.124Z,1.30
2022-07-29T16:08:15.485Z,1.40
2022-07-29T16:10:43.640Z,1.30
2022-07-29T16:13:11.227Z,1.20
2022-07-29T16:15:45.836Z,1.20
2022-07-29T16:18:31.031Z,1.10
2022-07-29T16:20:59.382Z,1.40
2022-07-29T16:23:27.225Z,1.20
2022-07-29T16:28:30.264Z,1.40
2022-07-29T16:30:58.811Z,1.20
2022-07-29T16:33:55.446Z,1.20
2022-07-29T16:36:18.779Z,1.40
2022-07-29T16:38:51.907Z,1.40
2022-07-29T16:41:33.623Z,1.20
2022-07-29T16:44:13.247Z,1.30
2022-07-29T16:49:31.653Z,1.40
2022-07-29T16:52:03.034Z,1.30
2022-07-29T16:54:34.955Z,1.30
2022-07-29T16:57:06.493Z,1.50
2022-07-29T16:59:43.415Z,1.40
2022-07-29T17:02:15.053Z,1.30
2022-07-29T17:04:45.834Z,1.10
2022-07-29T17:07:25.689Z,1.30
2022-07-29T17:10:04.576Z,1.70
2022-07-29T17:12:56.589Z,1.60
2022-07-29T17:15:48.036Z,1.20
2022-07-29T17:18:40.049Z,1.40
2022-07-29T17:21:26.491Z,1.30
2022-07-29T17:24:14.385Z,1.40
2022-07-29T17:26:50.649Z,1.40
2022-07-29T17:29:33.962Z,1.30
2022-07-29T17:32:22.063Z,1.60
2022-07-29T17:35:06.474Z,1.60
2022-07-29T17:37:50.165Z,1.30
2022-07-29T17:40:37.938Z,1.50
2022-07-29T17:43:27.854Z,1.50
2022-07-29T17:46:14.183Z,1.40
2022-07-29T17:49:11.333Z,1.30
2022-07-29T17:52:07.556Z,1.40
2022-07-29T17:55:02.196Z,1.50
2022-07-29T17:57:50.977Z,1.40
2022-07-29T18:00:35.066Z,1.50
2022-07-29T18:03:18.127Z,1.60
2022-07-29T18:06:04.652Z,1.70
2022-07-29T18:08:57.602Z,1.90
2022-07-29T18:11:44.427Z,1.60
2022-07-29T18:14:17.007Z,1.60
2022-07-29T18:16:45.158Z,1.90
2022-07-29T18:21:51.949Z,1.70
2022-07-29T18:24:25.354Z,1.90
2022-07-29T18:26:53.862Z,1.80
2022-07-29T18:29:22.009Z,1.50
2022-07-29T18:31:50.081Z,1.80
2022-07-29T18:34:18.074Z,2.00
2022-07-29T18:36:46.028Z,1.80
2022-07-29T18:39:21.420Z,1.80
2022-07-29T18:41:52.922Z,1.80
2022-07-29T18:44:24.804Z,1.60
2022-07-29T18:46:57.780Z,2.00
2022-07-29T18:49:31.785Z,2.00
2022-07-29T18:52:00.929Z,1.70
2022-07-29T18:54:32.045Z,1.60
2022-07-29T18:57:02.085Z,1.80
2022-07-29T18:59:52.609Z,1.90
2022-07-29T19:02:24.747Z,2.20
2022-07-29T19:04:52.462Z,1.90
2022-07-29T19:07:21.763Z,2.00
2022-07-29T19:09:49.890Z,1.80
2022-07-29T19:12:17.875Z,1.90
2022-07-29T19:14:45.659Z,1.90
2022-07-29T19:17:13.645Z,2.20
2022-07-29T19:19:41.915Z,1.80
2022-07-29T19:22:09.750Z,2.10
2022-07-29T19:24:38.392Z,1.90
2022-07-29T19:27:06.155Z,2.30
2022-07-29T19:29:35.147Z,2.40
2022-07-29T19:32:06.859Z,2.20
2022-07-29T19:34:37.836Z,2.50
2022-07-29T19:37:05.983Z,2.50
2022-07-29T19:39:35.182Z,2.80
2022-07-29T19:42:04.775Z,2.50
2022-07-29T19:44:32.655Z,2.70
2022-07-29T19:47:01.965Z,2.30
2022-07-29T19:49:29.696Z,2.50
2022-07-29T19:51:57.662Z,2.60
2022-07-29T19:56:54.416Z,2.70
2022-07-29T19:59:23.972Z,3.10
2022-07-29T20:01:52.408Z,3.00
2022-07-29T20:04:20.078Z,3.40
2022-07-29T20:06:49.780Z,3.10
2022-07-29T20:09:20.642Z,2.50
2022-07-29T20:11:49.013Z,3.00
2022-07-29T20:14:17.027Z,3.00
2022-07-29T20:16:45.481Z,2.60
2022-07-29T20:19:13.629Z,2.40
2022-07-29T20:21:41.362Z,3.10
2022-07-29T20:24:10.438Z,2.50
2022-07-29T20:26:38.980Z,2.40
2022-07-29T20:29:06.576Z,2.50
2022-07-29T20:31:35.019Z,2.00
2022-07-29T20:34:02.645Z,2.20
2022-07-29T20:36:31.628Z,2.10
2022-07-29T20:38:59.936Z,2.00
2022-07-29T20:41:28.958Z,1.60
2022-07-29T20:43:56.544Z,2.10
2022-07-29T20:46:24.140Z,2.00
2022-07-29T20:48:53.679Z,2.10
2022-07-29T20:51:23.627Z,1.90
2022-07-29T20:53:52.841Z,1.80
2022-07-29T20:56:23.961Z,1.50
2022-07-29T20:58:55.164Z,1.60
2022-07-29T21:01:37.543Z,1.50
2022-07-29T21:04:30.595Z,2.00
2022-07-29T21:07:02.445Z,1.60
2022-07-29T21:09:32.580Z,2.70
2022-07-29T21:12:03.319Z,1.60
2022-07-29T21:14:36.434Z,1.80
2022-07-29T21:17:07.076Z,1.40
2022-07-29T21:19:37.122Z,1.90
2022-07-29T21:22:05.974Z,1.60
2022-07-29T21:24:33.885Z,1.60
2022-07-29T21:27:35.058Z,1.90
2022-07-29T21:30:09.065Z,1.90
2022-07-29T21:32:37.166Z,1.40
2022-07-29T21:37:50.572Z,2.00
2022-07-29T21:42:48.953Z,1.50
2022-07-29T21:45:18.236Z,1.70
2022-07-29T21:47:46.436Z,1.90
2022-07-29T21:50:14.314Z,1.50
2022-07-29T21:52:43.761Z,2.00
2022-07-29T21:55:12.433Z,1.90
2022-07-29T21:57:40.567Z,2.20
2022-07-29T22:00:15.405Z,1.90
2022-07-29T22:02:43.532Z,1.80
2022-07-29T22:05:12.427Z,1.50
2022-07-29T22:07:56.319Z,1.60
2022-07-29T22:10:30.739Z,2.00
2022-07-29T22:12:59.923Z,1.80
2022-07-29T22:15:29.104Z,1.90
2022-07-29T22:17:57.177Z,1.70
2022-07-29T22:20:25.475Z,1.80
2022-07-29T22:22:53.775Z,2.20
2022-07-29T22:25:21.829Z,2.20
2022-07-29T22:27:49.725Z,1.70
2022-07-29T22:30:17.934Z,2.20
2022-07-29T22:32:45.716Z,2.00
2022-07-29T22:35:13.817Z,2.10
2022-07-29T22:37:41.336Z,1.70
2022-07-29T22:40:09.331Z,2.00
2022-07-29T22:42:36.883Z,2.40
2022-07-29T22:45:10.524Z,1.90
2022-07-29T22:47:46.349Z,2.00
2022-07-29T22:50:16.940Z,2.00
2022-07-29T22:55:12.977Z,1.90
2022-07-29T22:57:40.857Z,1.80
2022-07-29T23:00:09.273Z,2.00
2022-07-29T23:02:37.414Z,2.20
2022-07-29T23:05:05.585Z,1.90
2022-07-29T23:07:34.978Z,1.80
2022-07-29T23:10:02.615Z,1.90
2022-07-29T23:12:30.636Z,1.60
2022-07-29T23:14:58.257Z,1.60
2022-07-29T23:17:25.786Z,1.70
2022-07-29T23:19:53.283Z,1.70
2022-07-29T23:22:20.697Z,1.90
2022-07-29T23:24:48.268Z,2.00
2022-07-29T23:27:15.814Z,1.70
2022-07-29T23:29:43.384Z,1.60
2022-07-29T23:32:10.780Z,1.90
2022-07-29T23:34:38.320Z,1.80
2022-07-29T23:37:05.988Z,1.50
2022-07-29T23:39:33.458Z,1.60
2022-07-29T23:42:01.038Z,1.60
2022-07-29T23:44:28.557Z,1.70
2022-07-29T23:46:56.137Z,1.50
2022-07-29T23:49:23.640Z,1.60
2022-07-29T23:51:51.272Z,1.80
2022-07-29T23:54:18.830Z,1.90
2022-07-29T23:56:46.429Z,2.00
2022-07-29T23:59:14.106Z,2.00
